CheckWX is a tool to help pilots better visualize weather data.  It is not intended as a substitute for an official pre-flight weather briefing.

10:41:21 UTC

VVPQ TAF
Phu Quoc Airport
Duong Dong, Vietnam
TAF AMD VVPQ 260556Z 2606/2706 28010KT 9999 SCT015 SCT040 TEMPO 2607/2612 28015G30KT 2000 +TSRA BKN013 SCT015CB TEMPO 2622/2702 5000 TSRA BKN015 FEW017CB

Jun-26@
06:00 UTC

Jun-26 @ 06:00 UTC

Jun-27@
06:00 UTC

Jun-27 @ 06:00 UTC

TAF AMD VVPQ 260556Z 2606/2706 28010KT 9999 SCT015 SCT040
Wind
  • 280° at 10 KTS
Cloud Levels
  • Scattered at 1,500' AGL
  • Scattered at 4,000' AGL

Jun-26@
07:00 UTC

Jun-26 @ 07:00 UTC

Jun-26@
12:00 UTC

Jun-26 @ 12:00 UTC

TEMPO 2607/2612 28015G30KT 2000 +TSRA BKN013 SCT015CB

Temporary

Temporary Changes expected for less than half the time period

Wind
  • 280° at 15 KTS
  • {Gusting to 30 KTS
Conditions
Heavy Thunderstorm, Heavy Rain
Cloud Levels
  • Broken at 1,300' AGL
  • Scattered at 1,500' AGL

Jun-26@
22:00 UTC

Jun-26 @ 22:00 UTC

Jun-27@
02:00 UTC

Jun-27 @ 02:00 UTC

TEMPO 2622/2702 5000 TSRA BKN015 FEW017CB

Temporary

Temporary Changes expected for less than half the time period

Conditions
Thunderstorm, Rain
Cloud Levels
  • Broken at 1,500' AGL
  • Few at 1,700' AGL